Time;durP1;ratioP1;P1;durP2;ratioP2;P2;SDS_P1;SDS_P2;PMS_P1;PMS_P2;Temp;Humidity;BMP_temperature;BMP_pressure;BME280_temperature;BME280_humidity;BME280_pressure;Samples;Min_cycle;Max_cycle;Signal;HPM_P1;HPM_P2
2023/06/06 00:01:24;;;;;;;11.18;6.90;;;;;;;13.24;100.00;93888.69;4933225;29;20052;-59
2023/06/06 00:03:51;;;;;;;9.90;6.80;;;;;;;13.20;100.00;93885.25;4932763;29;20051;-59
2023/06/06 00:06:20;;;;;;;10.43;7.15;;;;;;;13.15;100.00;93885.78;4932806;29;20043;-61
2023/06/06 00:08:50;;;;;;;9.65;7.10;;;;;;;13.02;100.00;93893.19;4932459;29;20044;-59
2023/06/06 00:11:16;;;;;;;10.48;6.88;;;;;;;12.94;100.00;93884.34;4932918;29;20106;-59
2023/06/06 00:13:43;;;;;;;11.30;7.30;;;;;;;12.64;100.00;93885.47;4932521;29;20059;-59
2023/06/06 00:16:14;;;;;;;9.73;6.93;;;;;;;12.88;100.00;93891.56;4932713;29;20069;-61
2023/06/06 00:18:42;;;;;;;9.02;6.43;;;;;;;12.87;100.00;93884.50;4932186;29;20056;-62
2023/06/06 00:21:10;;;;;;;11.18;7.35;;;;;;;12.43;100.00;93881.97;4932016;29;20078;-60
2023/06/06 00:23:37;;;;;;;12.93;7.28;;;;;;;12.49;100.00;93882.25;4932070;29;20094;-61
2023/06/06 00:26:04;;;;;;;11.93;6.80;;;;;;;12.56;100.00;93888.38;4932382;29;20050;-59
2023/06/06 00:28:31;;;;;;;9.53;6.70;;;;;;;12.64;100.00;93883.47;4915443;29;20044;-57
2023/06/06 00:30:57;;;;;;;9.82;6.90;;;;;;;12.64;100.00;93883.47;4932359;29;20374;-59
2023/06/06 00:33:24;;;;;;;10.30;7.32;;;;;;;12.43;100.00;93876.47;4932644;29;20050;-59
2023/06/06 00:35:51;;;;;;;9.00;6.60;;;;;;;12.57;100.00;93880.88;4932060;29;20530;-60
2023/06/06 00:38:18;;;;;;;10.75;7.20;;;;;;;12.51;100.00;93883.38;4932391;29;20087;-59
2023/06/06 00:40:44;;;;;;;11.10;7.20;;;;;;;12.50;100.00;93883.81;4932281;29;20147;-62
2023/06/06 00:43:11;;;;;;;10.30;7.07;;;;;;;12.31;100.00;93885.41;4932380;29;20051;-60
2023/06/06 00:45:38;;;;;;;9.70;7.32;;;;;;;12.34;100.00;93884.56;4914919;29;20047;-59
2023/06/06 00:48:05;;;;;;;11.63;7.93;;;;;;;12.33;100.00;93870.00;4932033;29;20048;-59
2023/06/06 00:50:34;;;;;;;13.38;9.07;;;;;;;12.40;100.00;93885.59;4930369;29;20044;-62
2023/06/06 00:53:03;;;;;;;15.30;9.10;;;;;;;12.52;100.00;93893.19;4931975;29;20054;-64
2023/06/06 00:55:31;;;;;;;12.35;8.00;;;;;;;12.55;100.00;93889.56;4932009;29;20076;-61
2023/06/06 00:58:00;;;;;;;9.88;7.28;;;;;;;12.57;100.00;93889.13;4930799;29;20816;-63
2023/06/06 01:00:32;;;;;;;11.27;7.50;;;;;;;12.51;100.00;93885.34;4931745;29;20051;-60
2023/06/06 01:03:03;;;;;;;10.65;7.55;;;;;;;12.38;100.00;93896.28;4931064;29;20070;-62
2023/06/06 01:05:31;;;;;;;10.17;7.63;;;;;;;12.29;100.00;93885.81;4932039;29;20050;-64
2023/06/06 01:07:58;;;;;;;12.43;7.40;;;;;;;12.31;100.00;93888.16;4914317;29;20174;-59
2023/06/06 01:10:25;;;;;;;10.80;7.40;;;;;;;12.41;100.00;93887.13;4931886;29;20339;-59
2023/06/06 01:13:05;;;;;;;36.03;24.05;;;;;;;12.43;100.00;93889.47;4914486;29;20402;-59
2023/06/06 01:15:47;;;;;;;19.35;12.95;;;;;;;12.45;100.00;93887.84;4931280;29;20066;-59
2023/06/06 01:18:17;;;;;;;12.33;8.03;;;;;;;12.31;100.00;93897.19;4931812;29;20519;-59
2023/06/06 01:20:45;;;;;;;11.73;8.00;;;;;;;12.28;100.00;93881.53;4930626;29;20073;-59
2023/06/06 01:23:12;;;;;;;12.48;7.80;;;;;;;11.99;100.00;93884.13;4931633;29;20043;-59
2023/06/06 01:25:41;;;;;;;11.70;8.20;;;;;;;11.95;100.00;93886.19;4931047;29;20047;-61
2023/06/06 01:28:15;;;;;;;10.95;7.57;;;;;;;11.67;100.00;93890.25;4931470;29;20143;-60
2023/06/06 01:30:44;;;;;;;10.03;7.30;;;;;;;11.85;100.00;93892.66;4915534;29;20047;-60
2023/06/06 01:33:29;;;;;;;11.43;7.43;;;;;;;11.94;100.00;93887.38;4931723;29;20047;-60
2023/06/06 01:36:20;;;;;;;12.50;7.18;;;;;;;12.01;100.00;93884.47;4930804;29;20821;-59
2023/06/06 01:38:55;;;;;;;10.02;7.32;;;;;;;12.02;100.00;93888.03;4931017;29;20086;-60
2023/06/06 01:41:23;;;;;;;10.07;7.00;;;;;;;12.06;100.00;93896.97;4931522;29;20058;-64
2023/06/06 01:43:54;;;;;;;59.53;38.53;;;;;;;12.10;100.00;93892.16;4930878;29;20042;-59
2023/06/06 01:46:24;;;;;;;15.68;10.98;;;;;;;12.02;100.00;93896.28;4931540;29;20428;-59
2023/06/06 01:48:52;;;;;;;11.07;8.05;;;;;;;11.93;100.00;93897.63;4929558;29;20180;-59
2023/06/06 01:51:19;;;;;;;11.90;8.13;;;;;;;11.93;100.00;93894.06;4929382;29;20074;-65
2023/06/06 01:53:46;;;;;;;14.73;8.50;;;;;;;11.77;100.00;93892.81;4930917;29;20090;-60
2023/06/06 01:56:13;;;;;;;11.27;7.83;;;;;;;11.77;100.00;93898.31;4930568;29;20497;-59
2023/06/06 01:58:41;;;;;;;10.95;7.15;;;;;;;11.83;100.00;93895.84;4930462;29;20050;-59
2023/06/06 02:01:08;;;;;;;10.15;7.35;;;;;;;11.86;100.00;93897.72;4930565;29;20048;-59
2023/06/06 02:03:39;;;;;;;10.40;6.75;;;;;;;11.91;100.00;93899.22;4913286;29;20049;-61
2023/06/06 02:06:06;;;;;;;8.55;6.28;;;;;;;11.93;100.00;93899.56;4930403;29;20051;-60
2023/06/06 02:08:32;;;;;;;9.43;6.90;;;;;;;11.76;100.00;93901.47;4930218;29;20051;-57
2023/06/06 02:10:59;;;;;;;10.60;7.07;;;;;;;11.71;100.00;93907.44;4933937;29;20044;-59
2023/06/06 02:13:27;;;;;;;11.13;7.15;;;;;;;11.56;100.00;93901.47;4934456;29;20059;-65
2023/06/06 02:15:55;;;;;;;9.57;7.13;;;;;;;11.37;100.00;93895.53;4934055;29;20074;-60
2023/06/06 02:18:21;;;;;;;11.35;7.35;;;;;;;11.51;100.00;93902.75;4934392;29;20507;-61
2023/06/06 02:20:48;;;;;;;8.97;6.50;;;;;;;11.57;100.00;93903.03;4932463;29;20047;-60
2023/06/06 02:23:18;;;;;;;9.48;6.50;;;;;;;11.58;100.00;93893.56;4917609;29;20070;-62
2023/06/06 02:25:45;;;;;;;8.45;6.00;;;;;;;11.60;100.00;93897.44;4934139;29;20047;-60
2023/06/06 02:28:14;;;;;;;10.40;6.72;;;;;;;11.37;100.00;93903.00;4934085;29;20420;-59
2023/06/06 02:30:41;;;;;;;10.90;7.15;;;;;;;11.37;100.00;93901.03;4933696;29;20052;-60
2023/06/06 02:33:08;;;;;;;9.07;6.20;;;;;;;11.30;100.00;93906.66;4934175;29;20050;-59
2023/06/06 02:35:36;;;;;;;8.77;6.10;;;;;;;11.37;100.00;93900.28;4933650;29;20400;-59
2023/06/06 02:38:03;;;;;;;8.05;5.72;;;;;;;11.43;100.00;93904.06;4933826;29;20050;-60
2023/06/06 02:40:30;;;;;;;9.57;6.75;;;;;;;10.94;100.00;93909.25;4934079;29;20044;-64
2023/06/06 02:42:59;;;;;;;9.52;6.85;;;;;;;11.17;100.00;93912.00;4933285;29;20793;-62
2023/06/06 02:45:26;;;;;;;9.67;6.63;;;;;;;11.16;100.00;93912.41;4933961;29;20052;-59
2023/06/06 02:47:52;;;;;;;9.68;7.05;;;;;;;11.20;100.00;93908.38;4916639;29;20554;-63
2023/06/06 02:50:20;;;;;;;10.05;6.55;;;;;;;11.24;100.00;93913.06;4932373;29;20070;-62
2023/06/06 02:52:47;;;;;;;11.50;8.18;;;;;;;11.25;100.00;93918.13;4931956;29;20106;-59
2023/06/06 02:55:14;;;;;;;17.88;11.60;;;;;;;11.28;100.00;93920.03;4934179;29;20412;-58
2023/06/06 02:57:41;;;;;;;10.20;7.03;;;;;;;11.10;100.00;93919.56;4933700;29;20070;-60
2023/06/06 03:00:08;;;;;;;12.63;7.05;;;;;;;11.12;100.00;93925.41;4934290;29;20044;-59
2023/06/06 03:02:36;;;;;;;10.45;7.28;;;;;;;11.05;100.00;93920.84;4933638;29;20146;-62
2023/06/06 03:05:03;;;;;;;9.50;6.50;;;;;;;11.14;100.00;93923.81;4934392;29;20043;-59
2023/06/06 03:07:30;;;;;;;9.23;6.70;;;;;;;11.06;100.00;93927.88;4933833;29;20063;-59
2023/06/06 03:09:57;;;;;;;10.43;7.63;;;;;;;10.84;100.00;93923.94;4933137;29;21544;-58
2023/06/06 03:12:24;;;;;;;10.80;7.18;;;;;;;10.93;100.00;93927.69;4933772;29;20047;-64
2023/06/06 03:14:50;;;;;;;10.90;6.82;;;;;;;10.97;100.00;93928.41;4932856;29;21852;-62
2023/06/06 03:17:24;;;;;;;9.95;6.75;;;;;;;10.94;100.00;93929.22;4917515;29;20055;-60
2023/06/06 03:19:51;;;;;;;10.32;6.65;;;;;;;10.88;100.00;93928.16;4927424;29;20052;-58
2023/06/06 03:22:18;;;;;;;10.57;6.87;;;;;;;10.89;100.00;93934.44;4916501;29;20115;-59
2023/06/06 03:24:46;;;;;;;9.98;6.72;;;;;;;10.89;100.00;93934.44;4933267;29;20118;-59
2023/06/06 03:27:13;;;;;;;9.63;6.72;;;;;;;11.02;100.00;93929.13;4916777;29;20066;-61
2023/06/06 03:29:40;;;;;;;8.63;5.80;;;;;;;11.08;100.00;93941.94;4933208;29;20058;-59
2023/06/06 03:32:08;;;;;;;9.77;6.15;;;;;;;11.13;100.00;93937.97;4933759;29;20043;-60
2023/06/06 03:34:34;;;;;;;8.33;5.90;;;;;;;11.16;100.00;93940.63;4932951;29;20051;-60
2023/06/06 03:37:02;;;;;;;11.55;6.55;;;;;;;11.04;100.00;93937.72;4933607;29;20051;-58
2023/06/06 03:39:29;;;;;;;9.10;6.45;;;;;;;11.16;100.00;93942.63;4916612;29;20044;-59
2023/06/06 03:41:55;;;;;;;9.02;5.90;;;;;;;11.23;100.00;93939.75;4900557;29;20051;-60
2023/06/06 03:44:22;;;;;;;10.82;6.75;;;;;;;11.12;100.00;93950.91;4916665;29;20047;-62
2023/06/06 03:46:49;;;;;;;10.27;6.57;;;;;;;10.88;100.00;93950.13;4932726;29;20048;-59
2023/06/06 03:49:16;;;;;;;9.52;6.70;;;;;;;10.89;100.00;93946.19;4933120;29;20035;-63
2023/06/06 03:51:42;;;;;;;8.95;6.25;;;;;;;10.99;100.00;93947.22;4915724;29;20061;-59
2023/06/06 03:54:09;;;;;;;8.63;6.03;;;;;;;11.08;100.00;93947.44;4914470;29;20473;-58
2023/06/06 03:56:40;;;;;;;11.07;6.72;;;;;;;10.98;100.00;93948.41;4915443;29;20055;-60
2023/06/06 03:59:11;;;;;;;8.73;6.30;;;;;;;11.17;100.00;93944.94;4933158;29;20043;-59
2023/06/06 04:01:38;;;;;;;10.13;5.93;;;;;;;11.28;100.00;93938.50;4932661;29;20055;-60
2023/06/06 04:04:06;;;;;;;8.63;5.93;;;;;;;11.36;100.00;93946.19;4933016;29;20048;-59
2023/06/06 04:06:33;;;;;;;8.88;5.68;;;;;;;11.43;100.00;93944.50;4932464;29;20048;-58
2023/06/06 04:09:00;;;;;;;10.63;6.22;;;;;;;11.51;100.00;93949.47;4933218;29;20067;-60
2023/06/06 04:11:26;;;;;;;9.07;5.90;;;;;;;11.55;100.00;93944.69;4932972;29;20051;-60
2023/06/06 04:13:53;;;;;;;8.65;5.93;;;;;;;11.67;100.00;93939.72;4932316;29;20050;-59
2023/06/06 04:16:20;;;;;;;9.00;6.20;;;;;;;11.76;100.00;93937.97;4932850;29;20054;-63
2023/06/06 04:18:48;;;;;;;11.18;6.57;;;;;;;11.75;100.00;93944.69;4932534;29;20047;-64
2023/06/06 04:21:14;;;;;;;8.68;6.32;;;;;;;11.75;100.00;93943.91;4932598;29;20067;-58
2023/06/06 04:23:41;;;;;;;9.87;7.07;;;;;;;11.14;100.00;93947.75;4932122;29;20047;-59
2023/06/06 04:26:10;;;;;;;10.40;6.60;;;;;;;11.59;100.00;93944.63;4932665;29;20059;-61
2023/06/06 04:28:37;;;;;;;10.32;6.40;;;;;;;11.72;100.00;93937.28;4932128;29;20067;-60
2023/06/06 04:31:07;;;;;;;9.68;6.40;;;;;;;12.11;100.00;93943.22;4932475;29;20070;-65
2023/06/06 04:33:34;;;;;;;10.43;6.50;;;;;;;12.27;100.00;93940.50;4931175;29;20064;-59
2023/06/06 04:36:00;;;;;;;8.93;6.57;;;;;;;12.37;100.00;93941.50;4932467;29;20056;-62
2023/06/06 04:38:29;;;;;;;11.05;6.93;;;;;;;12.11;100.00;93943.22;4932309;29;20052;-60
2023/06/06 04:41:01;;;;;;;9.00;6.80;;;;;;;12.22;100.00;93941.03;4931945;29;20588;-60
2023/06/06 04:43:49;;;;;;;8.68;6.43;;;;;;;12.29;100.00;93934.59;4918651;29;20047;-59
2023/06/06 04:46:21;;;;;;;10.77;7.60;;;;;;;11.91;100.00;93946.78;4932113;29;20062;-59
2023/06/06 04:48:53;;;;;;;10.53;7.30;;;;;;;11.86;100.00;93957.47;4931644;29;20052;-59
2023/06/06 04:51:29;;;;;;;11.27;7.22;;;;;;;12.17;100.00;93949.78;4932250;29;20114;-60
2023/06/06 04:54:01;;;;;;;11.10;7.50;;;;;;;12.24;100.00;93955.13;4929518;29;20361;-63
2023/06/06 04:56:28;;;;;;;10.45;7.75;;;;;;;12.30;100.00;93953.44;4919761;29;20048;-61
2023/06/06 04:59:05;;;;;;;11.35;7.85;;;;;;;12.36;100.00;93951.72;4914680;29;20048;-60
2023/06/06 05:01:36;;;;;;;13.00;8.10;;;;;;;12.48;100.00;93957.78;4931353;29;20070;-60
2023/06/06 05:04:05;;;;;;;11.60;7.68;;;;;;;12.44;100.00;93954.34;4931895;29;20051;-59
2023/06/06 05:06:33;;;;;;;25.13;17.95;;;;;;;12.56;100.00;93953.69;4931479;29;20051;-58
2023/06/06 05:09:03;;;;;;;14.35;9.15;;;;;;;12.65;100.00;93948.34;4931665;29;20058;-59
2023/06/06 05:11:30;;;;;;;12.07;8.20;;;;;;;12.41;100.00;93952.44;4914872;29;20051;-58
2023/06/06 05:13:57;;;;;;;12.67;8.07;;;;;;;12.88;100.00;93946.66;4931189;29;20707;-59
2023/06/06 05:16:24;;;;;;;11.25;8.07;;;;;;;13.19;100.00;93947.06;4931566;29;20133;-63
2023/06/06 05:18:50;;;;;;;13.35;9.45;;;;;;;13.95;100.00;93954.97;4914290;29;20405;-60
2023/06/06 05:21:20;;;;;;;13.07;8.18;;;;;;;16.51;100.00;93939.22;4931229;29;20052;-58
2023/06/06 05:23:47;;;;;;;10.85;8.60;;;;;;;17.93;100.00;93945.09;4931213;29;20043;-61
2023/06/06 05:26:14;;;;;;;11.00;8.40;;;;;;;19.53;94.60;93941.66;4914859;29;20047;-59
2023/06/06 05:28:41;;;;;;;12.38;7.50;;;;;;;20.21;85.02;93939.53;4898277;29;20062;-59
2023/06/06 05:31:08;;;;;;;10.32;7.60;;;;;;;20.24;83.35;93944.13;4931417;29;20405;-59
2023/06/06 05:33:40;;;;;;;7.97;6.30;;;;;;;20.60;82.02;93945.81;4930927;29;20116;-59
2023/06/06 05:36:07;;;;;;;7.00;5.70;;;;;;;21.21;78.82;93944.50;4931516;29;20138;-58
2023/06/06 05:38:33;;;;;;;8.77;5.30;;;;;;;21.96;75.28;93948.63;4931101;29;20138;-59
2023/06/06 05:41:00;;;;;;;7.75;5.85;;;;;;;22.92;66.19;93947.63;4931539;29;20044;-62
2023/06/06 05:43:30;;;;;;;7.10;5.45;;;;;;;23.33;62.22;93947.44;4931128;29;20087;-60
2023/06/06 05:45:57;;;;;;;8.18;5.35;;;;;;;23.83;61.46;93946.25;4930954;29;20050;-65
2023/06/06 05:48:24;;;;;;;5.47;4.75;;;;;;;24.39;59.42;93942.91;4931234;29;20194;-59
2023/06/06 05:50:51;;;;;;;5.87;5.00;;;;;;;24.23;58.79;93952.78;4929916;29;20461;-62
2023/06/06 05:53:18;;;;;;;6.18;4.47;;;;;;;25.65;53.12;93942.47;4931465;29;20054;-60
2023/06/06 05:55:45;;;;;;;7.38;4.53;;;;;;;24.81;54.15;93946.06;4930991;29;20039;-59
2023/06/06 05:58:12;;;;;;;5.47;4.00;;;;;;;25.58;51.80;93943.00;4931222;29;20389;-59
2023/06/06 06:00:39;;;;;;;6.75;4.28;;;;;;;25.31;50.42;93937.69;4913784;29;20373;-60
2023/06/06 06:03:07;;;;;;;5.43;4.20;;;;;;;25.91;49.10;93947.81;4931407;29;20047;-63
2023/06/06 06:05:35;;;;;;;5.43;4.30;;;;;;;26.61;46.60;93947.78;4930131;29;20047;-61
2023/06/06 06:08:02;;;;;;;8.75;3.85;;;;;;;26.70;46.23;93944.66;4930510;29;20043;-60
2023/06/06 06:10:31;;;;;;;6.97;4.00;;;;;;;27.53;46.06;93943.78;4931245;29;20043;-60
2023/06/06 06:12:58;;;;;;;4.65;3.50;;;;;;;26.67;46.25;93943.66;4930218;29;20728;-61
2023/06/06 06:15:26;;;;;;;4.50;3.23;;;;;;;27.42;44.47;93947.47;4931447;29;20060;-60
2023/06/06 06:17:53;;;;;;;5.32;3.72;;;;;;;27.90;42.07;93940.38;4930656;29;20048;-61
2023/06/06 06:20:20;;;;;;;4.63;3.65;;;;;;;26.84;44.91;93942.78;4931130;29;20182;-57
2023/06/06 06:22:48;;;;;;;3.95;3.20;;;;;;;29.48;39.50;93930.50;4930425;29;20044;-58
2023/06/06 06:25:16;;;;;;;3.90;2.90;;;;;;;28.02;41.19;93941.00;4897830;29;20066;-61
2023/06/06 06:27:45;;;;;;;4.00;3.20;;;;;;;28.86;40.70;93939.94;4930413;29;20048;-59
2023/06/06 06:30:12;;;;;;;4.55;2.90;;;;;;;29.48;37.89;93944.66;4930944;29;20082;-61
2023/06/06 06:32:42;;;;;;;4.03;2.92;;;;;;;28.88;38.87;93940.16;4930531;29;20047;-59
2023/06/06 06:35:10;;;;;;;4.28;3.00;;;;;;;30.72;36.51;93941.53;4913853;29;20078;-59
2023/06/06 06:37:39;;;;;;;3.33;2.70;;;;;;;30.18;36.35;93943.63;4930392;29;20048;-59
2023/06/06 06:40:10;;;;;;;4.47;3.10;;;;;;;28.15;39.78;93958.06;4930806;29;20052;-60
2023/06/06 06:42:42;;;;;;;3.90;3.15;;;;;;;29.75;37.86;93947.56;4930282;29;20048;-59
2023/06/06 06:45:13;;;;;;;3.60;3.08;;;;;;;30.25;36.13;93950.72;4930764;29;20048;-59
2023/06/06 06:47:40;;;;;;;3.92;2.80;;;;;;;27.51;40.78;93955.59;4930346;29;20055;-62
2023/06/06 06:50:08;;;;;;;5.47;3.40;;;;;;;27.26;41.75;93955.53;4930729;29;20052;-63
2023/06/06 06:52:35;;;;;;;4.13;3.20;;;;;;;29.34;38.77;93948.75;4930227;29;20048;-65
2023/06/06 06:55:04;;;;;;;4.35;2.80;;;;;;;28.50;38.74;93956.38;4931154;29;20048;-63
2023/06/06 06:57:32;;;;;;;4.28;3.10;;;;;;;29.41;37.54;93955.81;4933610;29;20412;-62
2023/06/06 07:00:00;;;;;;;4.03;2.72;;;;;;;31.54;34.14;93952.06;4917430;29;20448;-60
2023/06/06 07:02:27;;;;;;;4.53;2.78;;;;;;;31.77;33.09;93958.66;4933914;29;20048;-62
2023/06/06 07:04:57;;;;;;;4.40;2.80;;;;;;;32.60;32.05;93953.41;4933968;29;20044;-61
2023/06/06 07:07:24;;;;;;;4.45;2.85;;;;;;;32.10;31.60;93956.31;4931994;29;20058;-60
2023/06/06 07:09:52;;;;;;;3.70;2.90;;;;;;;28.38;37.26;93960.59;4933343;29;20063;-61
2023/06/06 07:12:22;;;;;;;3.60;2.80;;;;;;;29.05;36.10;93956.09;4933535;29;20051;-59
2023/06/06 07:14:48;;;;;;;4.35;3.15;;;;;;;28.72;35.49;93949.66;4916453;29;20052;-59
2023/06/06 07:17:15;;;;;;;4.27;2.70;;;;;;;29.53;34.69;93950.75;4933840;29;20048;-59
2023/06/06 07:19:42;;;;;;;8.15;3.00;;;;;;;31.94;32.06;93948.97;4916402;29;20055;-59
2023/06/06 07:22:10;;;;;;;3.90;2.88;;;;;;;30.46;32.83;93954.44;4933470;29;20047;-64
2023/06/06 07:24:36;;;;;;;5.18;3.30;;;;;;;31.20;32.83;93959.28;4932800;29;20069;-60
2023/06/06 07:27:04;;;;;;;4.28;2.80;;;;;;;30.48;31.80;93956.72;4932549;29;20051;-63
2023/06/06 07:29:31;;;;;;;4.93;2.80;;;;;;;32.87;29.25;93961.63;4933356;29;20052;-60
2023/06/06 07:31:58;;;;;;;3.55;2.50;;;;;;;33.47;27.98;93959.53;4932932;29;20048;-63
2023/06/06 07:34:25;;;;;;;4.25;3.30;;;;;;;32.15;28.78;93958.22;4933437;29;20044;-60
2023/06/06 07:36:52;;;;;;;4.05;2.60;;;;;;;33.77;26.39;93951.03;4915808;29;20481;-60
2023/06/06 07:39:19;;;;;;;4.13;2.80;;;;;;;33.45;26.84;93965.03;4933577;29;20118;-60
2023/06/06 07:41:45;;;;;;;4.03;2.90;;;;;;;33.76;26.18;93960.16;4932988;29;20358;-60
2023/06/06 07:44:15;;;;;;;4.20;2.78;;;;;;;32.63;24.65;93961.53;4933482;29;20039;-62
2023/06/06 07:46:42;;;;;;;4.10;2.90;;;;;;;29.18;28.44;93963.91;4933041;29;20428;-60
2023/06/06 07:49:10;;;;;;;3.58;2.70;;;;;;;31.79;25.60;93960.97;4933435;29;20053;-60
2023/06/06 07:51:36;;;;;;;3.78;2.78;;;;;;;28.68;29.39;93966.91;4932655;29;20129;-63
2023/06/06 07:54:03;;;;;;;3.87;2.60;;;;;;;29.08;28.73;93960.69;4916142;29;20050;-59
2023/06/06 07:56:36;;;;;;;4.60;3.05;;;;;;;26.47;31.88;93967.28;4932968;29;20052;-60
2023/06/06 07:59:03;;;;;;;4.20;2.75;;;;;;;27.53;30.66;93969.94;4932613;29;21484;-61
2023/06/06 08:01:31;;;;;;;5.43;3.00;;;;;;;27.77;28.98;93969.19;4933068;29;20047;-60
2023/06/06 08:03:59;;;;;;;3.50;2.70;;;;;;;25.44;31.52;93970.09;4931746;29;20688;-59
2023/06/06 08:06:32;;;;;;;5.90;3.00;;;;;;;21.82;36.86;93974.59;4932888;29;20060;-59
2023/06/06 08:08:59;;;;;;;7.65;3.25;;;;;;;25.18;33.06;93975.97;4932017;29;21556;-60
2023/06/06 08:11:26;;;;;;;4.75;3.28;;;;;;;26.38;30.31;93969.63;4932658;29;20064;-61
2023/06/06 08:13:53;;;;;;;5.13;3.17;;;;;;;24.75;31.94;93976.94;4932473;29;20047;-63
2023/06/06 08:16:19;;;;;;;7.70;3.30;;;;;;;27.93;28.57;93978.81;4932671;29;20054;-59
2023/06/06 08:18:46;;;;;;;6.97;3.30;;;;;;;24.11;33.68;93970.84;4930369;29;20057;-60
2023/06/06 08:21:13;;;;;;;5.07;3.42;;;;;;;24.83;32.80;93971.56;4932286;29;20055;-60
2023/06/06 08:23:40;;;;;;;4.68;3.30;;;;;;;26.19;30.33;93975.84;4930666;29;20532;-59
2023/06/06 08:26:07;;;;;;;5.50;3.28;;;;;;;22.92;33.86;93988.84;4915650;29;20039;-63
2023/06/06 08:28:34;;;;;;;5.13;3.17;;;;;;;26.16;29.79;93984.53;4915319;29;20047;-59
2023/06/06 08:31:02;;;;;;;4.50;3.03;;;;;;;25.81;29.78;93988.69;4932340;29;20031;-59
2023/06/06 08:33:29;;;;;;;6.40;3.40;;;;;;;26.24;30.76;93983.50;4932472;29;20051;-59
2023/06/06 08:35:56;;;;;;;5.00;3.65;;;;;;;24.32;34.03;93977.03;4931891;29;20051;-64
2023/06/06 08:38:25;;;;;;;5.05;3.40;;;;;;;24.72;34.30;93973.09;4932299;29;20039;-61
2023/06/06 08:40:56;;;;;;;7.07;3.70;;;;;;;25.97;32.20;93984.34;4931331;29;20055;-59
2023/06/06 08:43:26;;;;;;;5.27;3.40;;;;;;;24.25;33.68;93974.72;4932065;29;20043;-59
2023/06/06 08:45:56;;;;;;;4.38;3.25;;;;;;;26.30;30.88;93977.84;4931757;29;20067;-59
2023/06/06 08:48:28;;;;;;;4.50;3.45;;;;;;;26.18;31.96;93974.31;4931774;29;20079;-60
2023/06/06 08:50:56;;;;;;;6.13;3.55;;;;;;;30.31;26.91;93970.47;4931572;29;20056;-63
2023/06/06 08:53:23;;;;;;;4.63;3.30;;;;;;;28.96;28.42;93971.41;4931958;29;20370;-64
2023/06/06 08:55:55;;;;;;;5.97;3.30;;;;;;;28.49;28.41;93977.38;4931580;29;20052;-64
2023/06/06 08:58:22;;;;;;;5.32;3.22;;;;;;;26.87;29.90;93984.75;4931936;29;20602;-61
2023/06/06 09:00:50;;;;;;;6.38;3.45;;;;;;;26.88;30.27;93980.66;4931421;29;20074;-64
2023/06/06 09:03:20;;;;;;;10.77;3.20;;;;;;;28.80;28.60;93978.81;4931765;29;21287;-62
2023/06/06 09:05:49;;;;;;;8.02;3.65;;;;;;;27.00;30.60;93978.50;4931301;29;20381;-66
2023/06/06 09:08:19;;;;;;;5.17;3.10;;;;;;;28.48;27.79;93987.91;4931346;29;20040;-59
2023/06/06 09:10:45;;;;;;;7.45;3.80;;;;;;;28.18;27.46;93984.44;4931224;29;20048;-60
2023/06/06 09:13:13;;;;;;;6.25;3.80;;;;;;;26.06;30.28;93984.06;4914593;29;20058;-66
2023/06/06 09:15:39;;;;;;;7.05;3.50;;;;;;;25.75;32.34;93983.06;4931080;29;20106;-60
2023/06/06 09:18:06;;;;;;;9.43;3.70;;;;;;;27.63;30.06;93976.75;4931137;29;20410;-62
2023/06/06 09:20:33;;;;;;;5.40;3.80;;;;;;;25.56;31.08;93973.69;4929201;29;20082;-60
2023/06/06 09:23:02;;;;;;;5.30;3.60;;;;;;;27.54;28.99;93967.88;4931232;29;20055;-60
2023/06/06 09:25:29;;;;;;;5.60;3.78;;;;;;;27.32;29.90;93966.78;4931689;29;20043;-59
2023/06/06 09:28:00;;;;;;;5.95;3.70;;;;;;;28.56;27.81;93959.13;4931030;29;20047;-59
2023/06/06 09:30:30;;;;;;;6.03;3.50;;;;;;;28.83;27.54;93957.94;4931413;29;20066;-60
2023/06/06 09:33:02;;;;;;;5.03;3.30;;;;;;;31.11;25.69;93950.47;4930436;29;20468;-60
2023/06/06 09:35:32;;;;;;;6.05;3.53;;;;;;;28.60;27.73;93954.69;4931462;29;20044;-60
2023/06/06 09:38:08;;;;;;;5.28;3.70;;;;;;;28.35;29.34;93964.47;4930269;29;20486;-59
2023/06/06 09:40:44;;;;;;;6.70;3.67;;;;;;;27.88;29.50;93957.06;4931210;29;20048;-63
2023/06/06 09:43:11;;;;;;;5.20;3.70;;;;;;;27.54;29.99;93956.59;4931247;29;20061;-59
2023/06/06 09:45:49;;;;;;;4.60;3.50;;;;;;;27.63;29.88;93962.66;4930985;29;20048;-60
2023/06/06 09:48:25;;;;;;;6.03;3.90;;;;;;;28.24;28.90;93960.50;4931194;29;20485;-59
2023/06/06 09:50:52;;;;;;;6.35;4.00;;;;;;;28.83;26.93;93952.31;4930580;29;20052;-60
2023/06/06 09:53:23;;;;;;;4.90;3.42;;;;;;;30.21;26.33;93941.81;4914164;29;20439;-59
2023/06/06 09:55:51;;;;;;;4.50;3.50;;;;;;;28.98;28.04;93949.03;4930726;29;20052;-59
2023/06/06 09:58:20;;;;;;;4.97;3.43;;;;;;;29.98;27.20;93939.41;4931242;29;20507;-65
2023/06/06 10:00:48;;;;;;;5.10;3.58;;;;;;;30.17;27.27;93941.38;4930630;29;20048;-66
2023/06/06 10:03:18;;;;;;;5.03;3.40;;;;;;;31.46;25.58;93946.31;4931204;29;20511;-61
2023/06/06 10:05:50;;;;;;;4.82;3.55;;;;;;;30.64;25.77;93935.75;4930609;29;20051;-59
2023/06/06 10:08:18;;;;;;;6.10;3.33;;;;;;;31.77;24.39;93938.81;4913894;29;20074;-60
2023/06/06 10:10:48;;;;;;;4.13;3.57;;;;;;;30.37;26.56;93928.66;4913781;29;20110;-60
2023/06/06 10:13:17;;;;;;;4.55;3.50;;;;;;;30.28;26.71;93924.16;4931058;29;20115;-59
2023/06/06 10:15:45;;;;;;;4.55;3.38;;;;;;;28.86;28.87;93933.53;4930742;29;20056;-59
2023/06/06 10:18:13;;;;;;;5.35;3.40;;;;;;;30.28;26.64;93932.63;4930739;29;20047;-59
2023/06/06 10:20:40;;;;;;;5.50;3.70;;;;;;;29.86;27.42;93930.38;4930067;29;20051;-59
2023/06/06 10:23:07;;;;;;;6.27;3.53;;;;;;;30.62;27.25;93929.13;4930682;29;20048;-60
2023/06/06 10:25:36;;;;;;;7.07;3.60;;;;;;;30.02;26.87;93924.94;4930312;29;20056;-62
2023/06/06 10:28:12;;;;;;;6.40;4.20;;;;;;;28.90;27.93;93934.00;4930906;29;20048;-61
2023/06/06 10:30:41;;;;;;;5.68;3.70;;;;;;;29.36;26.43;93923.53;4931403;29;20050;-63
2023/06/06 10:33:13;;;;;;;6.53;4.18;;;;;;;26.39;28.78;93931.75;4934446;29;20039;-59
2023/06/06 10:35:44;;;;;;;6.43;4.23;;;;;;;25.95;30.61;93941.91;4916957;29;20040;-59
2023/06/06 10:38:15;;;;;;;7.60;4.30;;;;;;;26.08;30.89;93934.47;4934105;29;20070;-59
2023/06/06 10:40:53;;;;;;;6.40;4.30;;;;;;;25.18;31.63;93939.44;4933530;29;20053;-58
2023/06/06 10:43:35;;;;;;;6.10;4.32;;;;;;;26.00;30.23;93927.84;4934355;29;20052;-59
2023/06/06 10:46:02;;;;;;;5.68;4.50;;;;;;;24.43;31.77;93935.00;4933316;29;21684;-59
2023/06/06 10:48:42;;;;;;;6.53;4.40;;;;;;;22.95;33.81;93940.25;4934456;29;20090;-60
2023/06/06 10:51:30;;;;;;;5.50;4.43;;;;;;;23.09;34.77;93933.00;4931509;29;21936;-59
2023/06/06 10:54:16;;;;;;;5.95;4.80;;;;;;;22.16;35.32;93939.47;4933193;29;21511;-59
2023/06/06 10:56:49;;;;;;;7.78;4.60;;;;;;;23.62;32.09;93933.59;4933624;29;20167;-58
2023/06/06 10:59:24;;;;;;;7.68;4.63;;;;;;;22.73;34.38;93938.78;4934076;29;20059;-59
2023/06/06 11:01:52;;;;;;;7.00;4.50;;;;;;;23.25;33.53;93934.41;4933480;29;20044;-61
2023/06/06 11:04:26;;;;;;;5.93;4.40;;;;;;;24.96;30.83;93923.38;4933992;29;20044;-58
2023/06/06 11:06:58;;;;;;;8.45;4.22;;;;;;;25.91;29.64;93919.69;4933699;29;20160;-62
2023/06/06 11:09:29;;;;;;;5.47;4.22;;;;;;;25.85;29.38;93924.53;4921997;29;20474;-58
2023/06/06 11:12:11;;;;;;;7.00;4.20;;;;;;;26.29;30.97;93912.34;4933245;29;20150;-64
2023/06/06 11:15:05;;;;;;;6.17;4.30;;;;;;;25.23;30.21;93907.81;4921482;29;20335;-59
2023/06/06 11:17:55;;;;;;;5.63;4.50;;;;;;;24.90;31.15;93914.94;4933382;29;20052;-62
2023/06/06 11:20:24;;;;;;;7.50;4.35;;;;;;;26.15;29.75;93905.03;4933625;29;20058;-58
2023/06/06 11:23:02;;;;;;;4.93;3.97;;;;;;;26.07;28.46;93906.84;4920910;29;20078;-58
2023/06/06 11:25:30;;;;;;;8.13;4.80;;;;;;;24.92;30.20;93901.91;4933751;29;20062;-58
2023/06/06 11:27:58;;;;;;;6.73;4.27;;;;;;;23.99;32.38;93911.16;4932698;29;20140;-58
2023/06/06 11:30:33;;;;;;;7.00;4.40;;;;;;;24.44;31.86;93916.88;4933634;29;20509;-58
2023/06/06 11:33:01;;;;;;;6.60;4.18;;;;;;;25.63;30.21;93909.25;4932425;29;20047;-59
2023/06/06 11:35:28;;;;;;;11.63;4.50;;;;;;;25.90;30.46;93907.69;4933619;29;20060;-60